Time;durP1;ratioP1;P1;durP2;ratioP2;P2;SDS_P1;SDS_P2;PMS_P1;PMS_P2;Temp;Humidity;BMP_temperature;BMP_pressure;BME280_temperature;BME280_humidity;BME280_pressure;Samples;Min_cycle;Max_cycle;Signal;HPM_P1;HPM_P2
2021/06/02 13:56:08;;;;;;;3.33;2.50;;;14.70;96.30;;;;;;4994522;28;20125;-83
2021/06/02 13:58:34;;;;;;;3.97;2.20;;;14.70;96.30;;;;;;4976907;28;20038;-84
2021/06/02 14:01:00;;;;;;;4.38;2.90;;;14.70;96.20;;;;;;4993112;28;20031;-81
2021/06/02 14:03:25;;;;;;;3.08;2.40;;;14.70;96.20;;;;;;4994307;28;20105;-84
2021/06/02 14:05:51;;;;;;;3.92;2.42;;;14.80;96.20;;;;;;4977065;28;20026;-82
2021/06/02 14:08:17;;;;;;;3.60;2.40;;;14.80;96.20;;;;;;4976583;28;20412;-83
2021/06/02 14:10:42;;;;;;;3.80;2.60;;;14.90;96.20;;;;;;4994004;28;20031;-83
2021/06/02 14:13:08;;;;;;;4.38;2.80;;;14.90;96.20;;;;;;4993756;28;20026;-84
2021/06/02 14:15:34;;;;;;;4.93;2.90;;;14.90;96.30;;;;;;4992833;28;20046;-83
2021/06/02 14:17:59;;;;;;;4.55;2.92;;;14.90;96.30;;;;;;4998057;28;20034;-82
2021/06/02 14:20:25;;;;;;;5.13;3.10;;;15.00;96.30;;;;;;4980134;28;20030;-82
2021/06/02 14:22:54;;;;;;;4.63;2.90;;;15.00;96.30;;;;;;4980128;28;20445;-86
2021/06/02 14:25:28;;;;;;;3.72;2.90;;;15.00;96.30;;;;;;4997845;28;20041;-82
2021/06/02 14:27:54;;;;;;;4.15;2.95;;;15.10;96.50;;;;;;4998457;28;20065;-83
2021/06/02 14:30:19;;;;;;;3.58;2.67;;;15.10;96.40;;;;;;4980222;28;20058;-82
2021/06/02 14:32:45;;;;;;;3.65;2.60;;;15.10;96.30;;;;;;4998112;28;20037;-83
2021/06/02 14:35:11;;;;;;;3.15;2.25;;;15.10;96.10;;;;;;4980085;28;20465;-81
2021/06/02 14:37:42;;;;;;;4.00;2.60;;;15.20;96.00;;;;;;4979938;28;20080;-83
2021/06/02 14:40:09;;;;;;;4.80;3.05;;;15.20;95.90;;;;;;4980162;28;20037;-81
2021/06/02 14:42:34;;;;;;;5.65;3.10;;;15.20;95.70;;;;;;4979859;28;20485;-83
2021/06/02 14:45:00;;;;;;;3.83;2.83;;;15.20;95.60;;;;;;4980027;28;20044;-83
2021/06/02 14:47:27;;;;;;;4.45;2.90;;;15.20;95.60;;;;;;4996902;28;20495;-81
2021/06/02 14:49:54;;;;;;;3.95;3.05;;;15.20;95.50;;;;;;4997052;28;20059;-82
2021/06/02 14:52:21;;;;;;;4.03;3.03;;;15.10;95.40;;;;;;4997001;28;20129;-82
2021/06/02 14:54:47;;;;;;;3.58;2.70;;;15.10;95.30;;;;;;4995765;28;20027;-82
2021/06/02 14:57:13;;;;;;;5.10;3.17;;;15.10;95.30;;;;;;4996021;28;20465;-82
2021/06/02 14:59:38;;;;;;;3.53;2.65;;;15.10;95.20;;;;;;4995982;28;20023;-82
2021/06/02 15:02:04;;;;;;;3.80;2.50;;;15.20;95.40;;;;;;4996951;28;20380;-83
2021/06/02 15:04:30;;;;;;;3.47;2.67;;;15.20;95.30;;;;;;4995613;28;20046;-83
2021/06/02 15:06:59;;;;;;;4.55;2.45;;;15.10;95.30;;;;;;4996697;28;20098;-82
2021/06/02 15:09:36;;;;;;;2.83;2.35;;;15.20;95.40;;;;;;4998649;28;20337;-90
2021/06/02 15:12:02;;;;;;;3.97;2.50;;;15.20;95.60;;;;;;5007440;28;20466;-80
2021/06/02 15:14:28;;;;;;;14.98;10.43;;;15.20;95.70;;;;;;5014534;28;20056;-82
2021/06/02 15:16:54;;;;;;;36.25;26.42;;;15.30;96.00;;;;;;5012857;28;20548;-83
2021/06/02 15:19:20;;;;;;;17.45;13.40;;;15.40;96.20;;;;;;5045357;28;20113;-83
2021/06/02 15:21:47;;;;;;;11.27;8.20;;;15.50;96.00;;;;;;5015819;28;20022;-84
2021/06/02 15:24:13;;;;;;;8.50;6.28;;;15.60;95.90;;;;;;5016059;28;20029;-80
2021/06/02 15:26:41;;;;;;;7.82;5.55;;;15.70;95.70;;;;;;5015487;28;20022;-83
2021/06/02 15:29:09;;;;;;;68.13;52.00;;;15.70;95.60;;;;;;5014385;28;20121;-84
2021/06/02 15:31:36;;;;;;;46.30;41.40;;;15.80;95.50;;;;;;5014566;28;20030;-84
2021/06/02 15:34:05;;;;;;;29.50;26.25;;;15.80;95.60;;;;;;5015533;28;20029;-82
2021/06/02 15:36:32;;;;;;;17.45;15.57;;;15.80;95.40;;;;;;5015704;28;20034;-81
2021/06/02 15:38:59;;;;;;;13.27;10.68;;;15.80;95.30;;;;;;5015132;28;20038;-86
2021/06/02 15:41:26;;;;;;;10.63;8.30;;;15.80;95.30;;;;;;5014271;28;20026;-82
2021/06/02 15:43:52;;;;;;;8.70;5.85;;;15.80;95.30;;;;;;5006027;28;20108;-83
2021/06/02 15:50:01;;;;;;;5.20;3.90;;;15.90;95.50;;;;;;4934862;28;20061;-83
2021/06/02 15:52:41;;;;;;;6.22;3.42;;;16.00;95.50;;;;;;4981019;28;20022;-82
2021/06/02 15:55:12;;;;;;;4.68;3.90;;;16.00;95.40;;;;;;4997460;28;20050;-82
2021/06/02 15:57:40;;;;;;;4.65;3.50;;;16.10;95.50;;;;;;4996550;28;20527;-81
2021/06/02 16:00:14;;;;;;;5.63;3.67;;;16.20;95.40;;;;;;4984435;28;20058;-81
2021/06/02 16:02:42;;;;;;;4.90;3.60;;;16.30;95.40;;;;;;4979300;28;20031;-80
2021/06/02 16:05:09;;;;;;;4.45;3.13;;;16.40;95.10;;;;;;5001226;28;20068;-83
2021/06/02 16:07:35;;;;;;;4.15;3.08;;;16.40;95.10;;;;;;4985153;28;20034;-82
2021/06/02 16:10:01;;;;;;;12.52;8.82;;;16.50;94.60;;;;;;4978965;28;20041;-84
2021/06/02 16:12:27;;;;;;;9.57;7.00;;;16.40;94.50;;;;;;4993213;28;20109;-86
2021/06/02 16:14:53;;;;;;;26.10;18.00;;;16.50;94.50;;;;;;4976540;28;20026;-84
2021/06/02 16:17:18;;;;;;;12.85;9.60;;;16.50;94.40;;;;;;4977182;28;20026;-82
2021/06/02 16:19:44;;;;;;;9.55;6.95;;;16.50;94.40;;;;;;4975428;28;20435;-80
2021/06/02 16:22:10;;;;;;;8.10;5.38;;;16.50;94.40;;;;;;4992397;28;20421;-81
2021/06/02 16:24:44;;;;;;;6.53;4.85;;;16.60;94.40;;;;;;4992657;28;20492;-82
2021/06/02 16:27:12;;;;;;;6.50;4.40;;;16.50;94.20;;;;;;4975095;28;20033;-82
2021/06/02 16:29:41;;;;;;;6.90;4.78;;;16.50;94.20;;;;;;4992640;28;20116;-81
2021/06/02 16:32:08;;;;;;;5.80;3.88;;;16.50;94.20;;;;;;4992267;28;20061;-81
2021/06/02 16:34:38;;;;;;;7.68;4.80;;;16.50;94.10;;;;;;4974527;28;20724;-80
2021/06/02 16:37:12;;;;;;;8.30;5.40;;;16.50;93.90;;;;;;4992186;28;20038;-79
2021/06/02 16:39:38;;;;;;;15.50;6.25;;;16.50;93.80;;;;;;4994554;28;20112;-83
2021/06/02 16:42:05;;;;;;;9.05;6.05;;;16.60;93.70;;;;;;5009751;28;20105;-80
2021/06/02 16:44:31;;;;;;;9.85;6.22;;;16.60;93.40;;;;;;4988972;28;20030;-84
2021/06/02 16:47:01;;;;;;;8.75;5.78;;;16.50;93.20;;;;;;5003504;28;20686;-83
2021/06/02 16:49:27;;;;;;;8.95;5.20;;;16.50;93.10;;;;;;4981802;28;20034;-80
2021/06/02 16:51:56;;;;;;;7.10;4.60;;;16.50;92.80;;;;;;5017536;28;20050;-81
2021/06/02 16:54:23;;;;;;;7.38;4.40;;;16.50;92.70;;;;;;5000747;28;20120;-82
2021/06/02 16:56:49;;;;;;;6.00;3.88;;;16.50;92.50;;;;;;5019356;28;20022;-82
2021/06/02 16:59:18;;;;;;;6.63;3.55;;;16.50;92.50;;;;;;5001028;28;20036;-82
2021/06/02 17:01:44;;;;;;;5.32;3.40;;;16.50;92.30;;;;;;5021955;28;20030;-80
2021/06/02 17:04:11;;;;;;;7.07;3.35;;;16.40;92.20;;;;;;4999489;28;20025;-83
2021/06/02 17:06:38;;;;;;;6.68;3.10;;;16.40;92.20;;;;;;5000587;28;20026;-82
2021/06/02 17:09:06;;;;;;;4.20;2.92;;;16.40;92.10;;;;;;4999587;28;20025;-81
2021/06/02 17:11:37;;;;;;;5.72;3.00;;;16.40;92.10;;;;;;5001647;28;20404;-82
2021/06/02 17:14:03;;;;;;;5.10;3.28;;;16.40;92.00;;;;;;5011388;28;20053;-83
2021/06/02 17:16:33;;;;;;;4.28;2.90;;;16.30;91.90;;;;;;4999363;28;20021;-82
2021/06/02 17:19:02;;;;;;;4.60;3.05;;;16.30;91.90;;;;;;5001413;28;20460;-81
2021/06/02 17:21:29;;;;;;;4.05;3.00;;;16.30;91.90;;;;;;5001273;28;20033;-82
2021/06/02 17:23:58;;;;;;;5.30;3.45;;;16.20;91.90;;;;;;4994814;28;20057;-83
2021/06/02 17:26:26;;;;;;;7.75;3.47;;;16.20;91.90;;;;;;5016367;28;20049;-81
2021/06/02 17:28:56;;;;;;;6.05;3.40;;;16.10;91.80;;;;;;4996767;28;20480;-81
2021/06/02 17:31:24;;;;;;;5.28;2.85;;;16.10;91.90;;;;;;5000102;28;20026;-79
2021/06/02 17:33:53;;;;;;;5.15;3.20;;;16.10;91.90;;;;;;5020805;28;20045;-80
2021/06/02 17:36:22;;;;;;;5.20;3.47;;;16.00;92.00;;;;;;5025839;28;20030;-82
2021/06/02 17:38:49;;;;;;;11.68;8.43;;;16.00;92.10;;;;;;4997790;28;20128;-83
2021/06/02 17:41:18;;;;;;;32.33;17.98;;;15.90;92.20;;;;;;4993748;28;20113;-81
2021/06/02 17:43:47;;;;;;;31.23;19.85;;;15.90;92.40;;;;;;4993614;28;20053;-92
2021/06/02 17:46:16;;;;;;;19.67;12.95;;;15.90;92.40;;;;;;5011466;28;20372;-80
2021/06/02 17:48:50;;;;;;;13.38;9.20;;;15.90;92.40;;;;;;5002466;28;20124;-83
2021/06/02 17:51:17;;;;;;;9.55;6.53;;;15.80;92.30;;;;;;5012918;28;20489;-81
2021/06/02 17:53:44;;;;;;;9.60;6.03;;;15.80;92.30;;;;;;4982598;28;20030;-84
2021/06/02 17:59:06;;;;;;;6.03;4.35;;;15.70;92.30;;;;;;4962941;28;20054;-82
2021/06/02 18:01:32;;;;;;;7.43;4.65;;;15.70;92.40;;;;;;4985721;28;20413;-81
2021/06/02 18:03:59;;;;;;;6.50;4.25;;;15.60;92.30;;;;;;4987981;28;20036;-81
2021/06/02 18:06:26;;;;;;;5.63;3.60;;;15.60;92.40;;;;;;4987362;28;20026;-80
2021/06/02 18:08:56;;;;;;;5.32;3.42;;;15.60;92.40;;;;;;4986377;28;20679;-81
2021/06/02 18:11:23;;;;;;;4.38;2.75;;;15.60;92.40;;;;;;4986752;28;20025;-81
2021/06/02 18:13:50;;;;;;;4.47;3.10;;;15.60;92.30;;;;;;5005053;28;20057;-81
2021/06/02 18:16:19;;;;;;;5.53;3.38;;;15.50;92.30;;;;;;4982780;28;20023;-81
2021/06/02 18:18:58;;;;;;;6.45;3.55;;;15.50;92.30;;;;;;4986420;28;20436;-82
2021/06/02 18:21:33;;;;;;;4.18;3.10;;;15.50;92.40;;;;;;4985177;28;20026;-82
2021/06/02 18:24:02;;;;;;;4.20;3.13;;;15.50;92.50;;;;;;4983588;28;20108;-80
2021/06/02 18:26:30;;;;;;;4.60;3.20;;;15.50;92.40;;;;;;4986037;28;20025;-81
2021/06/02 18:28:59;;;;;;;3.50;2.50;;;15.40;92.50;;;;;;4999985;28;20499;-81
2021/06/02 18:31:27;;;;;;;3.33;2.40;;;15.40;92.50;;;;;;4986257;28;20026;-80
2021/06/02 18:33:53;;;;;;;2.90;2.38;;;15.40;92.80;;;;;;5005180;28;20317;-83
2021/06/02 18:36:19;;;;;;;4.70;3.08;;;15.40;92.70;;;;;;4985846;28;20027;-82
2021/06/02 18:38:44;;;;;;;3.47;2.45;;;15.40;92.70;;;;;;4986469;28;20046;-82
2021/06/02 18:41:12;;;;;;;2.95;2.35;;;15.40;92.60;;;;;;5004293;28;20034;-81
2021/06/02 18:43:39;;;;;;;4.75;2.80;;;15.40;92.70;;;;;;4982365;28;20041;-81
2021/06/02 18:46:06;;;;;;;3.55;2.63;;;15.40;92.60;;;;;;4986900;28;20033;-81
2021/06/02 18:48:33;;;;;;;4.13;2.80;;;15.40;92.60;;;;;;4985313;28;20117;-80
2021/06/02 18:50:59;;;;;;;3.75;2.50;;;15.40;92.60;;;;;;4995964;28;20129;-80
2021/06/02 18:53:26;;;;;;;3.60;2.50;;;15.40;92.50;;;;;;5023472;28;20148;-82
2021/06/02 18:55:55;;;;;;;3.33;2.47;;;15.40;92.40;;;;;;5021962;28;20034;-81
2021/06/02 18:58:26;;;;;;;4.30;2.40;;;15.40;92.30;;;;;;5006045;28;20159;-83
2021/06/02 19:00:54;;;;;;;4.05;2.45;;;15.50;92.30;;;;;;5006612;28;20041;-83
2021/06/02 19:03:24;;;;;;;3.47;2.20;;;15.40;92.10;;;;;;5004493;28;20113;-82
2021/06/02 19:05:50;;;;;;;2.90;2.05;;;15.50;92.10;;;;;;5005000;28;20161;-82
2021/06/02 19:08:19;;;;;;;3.47;2.00;;;15.50;92.00;;;;;;5006239;28;20048;-82
2021/06/02 19:10:48;;;;;;;3.17;1.70;;;15.40;91.90;;;;;;5005605;28;20036;-84
2021/06/02 19:13:18;;;;;;;2.38;1.80;;;15.50;91.90;;;;;;4988474;28;20026;-82
2021/06/02 19:15:46;;;;;;;1.53;1.40;;;15.50;92.00;;;;;;4998298;28;20033;-83
2021/06/02 19:18:12;;;;;;;1.85;1.60;;;15.50;91.80;;;;;;5013603;28;20259;-81
2021/06/02 19:20:39;;;;;;;1.92;1.52;;;15.50;91.70;;;;;;5014776;28;20068;-80
2021/06/02 19:23:05;;;;;;;2.90;1.70;;;15.50;91.60;;;;;;5015588;28;20456;-82
2021/06/02 19:25:32;;;;;;;4.35;3.38;;;15.50;91.60;;;;;;5016283;28;20567;-81
2021/06/02 19:27:58;;;;;;;32.72;23.95;;;15.50;91.50;;;;;;5015123;28;20120;-84
2021/06/02 19:30:25;;;;;;;21.00;14.63;;;15.50;91.50;;;;;;4996455;28;20113;-84
2021/06/02 19:32:50;;;;;;;12.35;9.20;;;15.50;91.40;;;;;;4993298;28;20033;-81
2021/06/02 19:35:16;;;;;;;7.82;5.95;;;15.60;91.20;;;;;;4997530;28;20037;-80
2021/06/02 19:37:43;;;;;;;6.93;4.43;;;15.60;91.00;;;;;;5019569;28;20037;-82
2021/06/02 19:40:11;;;;;;;4.40;3.33;;;15.60;90.70;;;;;;5005505;28;20087;-80
2021/06/02 19:42:37;;;;;;;5.85;3.17;;;15.60;90.70;;;;;;5004795;28;20021;-81
2021/06/02 19:45:07;;;;;;;3.70;2.65;;;15.60;90.60;;;;;;5021214;28;20822;-83
2021/06/02 19:47:33;;;;;;;3.10;2.13;;;15.60;90.50;;;;;;5004487;28;20025;-80
2021/06/02 19:49:58;;;;;;;2.90;2.08;;;15.60;90.30;;;;;;5003288;28;20036;-82
2021/06/02 19:52:24;;;;;;;2.50;1.90;;;15.60;90.20;;;;;;5001506;28;20045;-82
2021/06/02 19:54:50;;;;;;;2.40;1.85;;;15.60;90.00;;;;;;5003610;28;20434;-81
2021/06/02 19:57:19;;;;;;;1.90;1.70;;;15.60;89.80;;;;;;4981102;28;20034;-81
2021/06/02 19:59:45;;;;;;;3.38;2.17;;;15.70;89.70;;;;;;4985707;28;20038;-81
2021/06/02 20:02:13;;;;;;;3.90;1.80;;;15.60;89.10;;;;;;4985516;28;20036;-82
2021/06/02 20:04:39;;;;;;;3.15;1.90;;;15.60;88.60;;;;;;4985667;28;20110;-82
2021/06/02 20:07:08;;;;;;;4.75;2.00;;;15.70;88.20;;;;;;5003940;28;20018;-82
2021/06/02 20:09:41;;;;;;;3.28;1.80;;;15.70;87.10;;;;;;4984780;28;20076;-82
2021/06/02 20:12:08;;;;;;;4.78;1.75;;;15.70;86.40;;;;;;5001163;28;20034;-81
2021/06/02 20:14:35;;;;;;;3.22;1.90;;;15.80;85.90;;;;;;4984760;28;20029;-82
2021/06/02 20:17:03;;;;;;;2.72;1.88;;;15.80;85.20;;;;;;5003242;28;20034;-80
2021/06/02 20:19:28;;;;;;;3.83;1.90;;;15.80;84.70;;;;;;4983286;28;20468;-82
2021/06/02 20:21:54;;;;;;;3.17;1.73;;;15.80;83.90;;;;;;4984446;28;20045;-83
2021/06/02 20:24:20;;;;;;;3.17;2.17;;;15.80;83.20;;;;;;5001594;28;20025;-82
2021/06/02 20:26:46;;;;;;;2.42;1.70;;;15.80;82.90;;;;;;4985112;28;20037;-82
2021/06/02 20:29:19;;;;;;;3.50;1.70;;;15.80;82.60;;;;;;5008967;28;20381;-80
2021/06/02 20:34:33;;;;;;;3.97;1.95;;;15.80;81.50;;;;;;5014220;28;20041;-81
2021/06/02 20:36:59;;;;;;;3.47;1.75;;;15.90;81.30;;;;;;4997045;28;20033;-80
2021/06/02 20:39:27;;;;;;;2.17;1.45;;;15.90;81.00;;;;;;4997147;28;20123;-80
2021/06/02 20:41:54;;;;;;;2.25;1.48;;;15.90;80.50;;;;;;5014434;28;20153;-80
2021/06/02 20:44:25;;;;;;;1.98;1.52;;;15.80;80.20;;;;;;4996945;28;20415;-83
2021/06/02 20:46:52;;;;;;;3.25;2.00;;;15.90;80.10;;;;;;5014451;28;20448;-79
2021/06/02 20:49:18;;;;;;;3.63;2.08;;;15.90;79.70;;;;;;5014168;28;20483;-80
2021/06/02 20:51:45;;;;;;;3.53;1.92;;;15.90;79.50;;;;;;5012211;28;20100;-79
2021/06/02 20:54:11;;;;;;;3.35;1.88;;;15.90;79.40;;;;;;5016535;28;20080;-79
2021/06/02 20:56:38;;;;;;;3.30;1.70;;;15.80;78.20;;;;;;5033904;28;20026;-81
2021/06/02 20:59:05;;;;;;;3.60;1.80;;;15.90;77.60;;;;;;5016365;28;20043;-80
2021/06/02 21:01:31;;;;;;;3.00;1.67;;;15.90;77.50;;;;;;5012721;28;20026;-79
2021/06/02 21:03:57;;;;;;;2.92;1.90;;;15.80;76.90;;;;;;5013145;28;20121;-78
2021/06/02 21:06:26;;;;;;;3.10;1.60;;;15.80;76.10;;;;;;5013104;28;20117;-79
2021/06/02 21:08:51;;;;;;;4.30;1.70;;;15.80;76.00;;;;;;5014250;28;20064;-79
2021/06/02 21:11:18;;;;;;;3.92;1.70;;;15.80;75.60;;;;;;5014162;28;20452;-79
2021/06/02 21:13:43;;;;;;;3.08;1.83;;;15.80;75.40;;;;;;5014132;28;20022;-80
2021/06/02 21:16:09;;;;;;;2.45;1.55;;;15.80;75.30;;;;;;5014169;28;20030;-79
2021/06/02 21:18:35;;;;;;;2.20;1.80;;;15.70;75.20;;;;;;5014384;28;20030;-80
2021/06/02 21:21:01;;;;;;;2.65;2.10;;;15.70;75.30;;;;;;5012618;28;20577;-79
2021/06/02 21:23:27;;;;;;;4.22;1.60;;;15.70;74.70;;;;;;5012413;28;20488;-80
2021/06/02 21:25:53;;;;;;;7.70;2.00;;;15.70;74.60;;;;;;5014130;28;20029;-80
2021/06/02 21:28:21;;;;;;;4.75;1.98;;;15.70;74.20;;;;;;5012392;28;20388;-80
2021/06/02 21:30:47;;;;;;;4.72;2.15;;;15.70;73.70;;;;;;5014015;28;20373;-80
2021/06/02 21:33:13;;;;;;;6.75;2.72;;;15.70;73.30;;;;;;5013702;28;20036;-80
2021/06/02 21:35:39;;;;;;;3.08;2.33;;;15.70;73.50;;;;;;5014398;28;20134;-80
2021/06/02 21:38:06;;;;;;;2.70;1.88;;;15.70;73.50;;;;;;5012613;28;20136;-80
2021/06/02 21:40:32;;;;;;;2.40;1.90;;;15.70;73.30;;;;;;5012342;28;20396;-80
2021/06/02 21:42:58;;;;;;;3.20;2.20;;;15.70;72.80;;;;;;5013764;28;20022;-81
2021/06/02 21:45:24;;;;;;;3.95;2.15;;;15.70;72.50;;;;;;5013747;28;20041;-80
2021/06/02 21:47:50;;;;;;;4.18;2.03;;;15.70;72.30;;;;;;5013473;28;20030;-81
2021/06/02 21:50:16;;;;;;;3.03;2.42;;;15.70;72.00;;;;;;5012425;28;20144;-80
2021/06/02 21:52:41;;;;;;;3.80;1.92;;;15.70;71.80;;;;;;5013818;28;20030;-80
2021/06/02 21:55:08;;;;;;;5.20;2.28;;;15.70;71.50;;;;;;5013582;28;20088;-81
2021/06/02 21:57:34;;;;;;;5.90;2.42;;;15.70;71.70;;;;;;5012355;28;20060;-81
2021/06/02 22:00:00;;;;;;;2.60;1.90;;;15.60;71.00;;;;;;5012865;28;20026;-80
2021/06/02 22:02:26;;;;;;;3.67;1.95;;;15.60;71.30;;;;;;5013711;28;20088;-80
2021/06/02 22:04:53;;;;;;;4.68;2.30;;;15.60;71.30;;;;;;5013626;28;20057;-81
2021/06/02 22:07:19;;;;;;;4.43;2.28;;;15.60;71.00;;;;;;5013685;28;20022;-80
2021/06/02 22:09:45;;;;;;;4.95;2.30;;;15.50;70.30;;;;;;5013688;28;20049;-80
2021/06/02 22:12:11;;;;;;;5.82;2.30;;;15.50;70.30;;;;;;5012088;28;20037;-81
2021/06/02 22:14:37;;;;;;;2.83;1.80;;;15.50;70.50;;;;;;5013161;28;20037;-81
2021/06/02 22:17:03;;;;;;;4.45;2.03;;;15.50;70.40;;;;;;5013244;28;20026;-81
2021/06/02 22:19:29;;;;;;;3.22;2.10;;;15.50;70.60;;;;;;5013603;28;20100;-81
2021/06/02 22:21:54;;;;;;;5.10;2.05;;;15.40;70.70;;;;;;5012246;28;20073;-81
2021/06/02 22:24:20;;;;;;;5.07;2.08;;;15.30;70.60;;;;;;5012017;28;20033;-81
2021/06/02 22:26:46;;;;;;;5.47;1.98;;;15.30;70.80;;;;;;5013397;28;20097;-81
2021/06/02 22:29:12;;;;;;;4.32;2.35;;;15.20;70.70;;;;;;5012739;28;20104;-81
2021/06/02 22:31:37;;;;;;;4.25;2.17;;;15.20;70.70;;;;;;5013672;28;20026;-81
2021/06/02 22:34:04;;;;;;;4.38;2.55;;;15.20;70.90;;;;;;5012156;28;20028;-80
2021/06/02 22:36:30;;;;;;;6.30;2.60;;;15.20;70.70;;;;;;5012114;28;20026;-80
2021/06/02 22:38:56;;;;;;;4.43;2.20;;;15.20;70.70;;;;;;5016953;28;20037;-80
2021/06/02 22:41:22;;;;;;;7.78;2.33;;;15.20;70.70;;;;;;5015457;28;20057;-82
2021/06/02 22:43:48;;;;;;;2.90;1.92;;;15.10;70.60;;;;;;5016866;28;20057;-79
2021/06/02 22:46:13;;;;;;;3.05;1.88;;;15.10;70.70;;;;;;5016884;28;20037;-83
2021/06/02 22:48:39;;;;;;;3.22;2.03;;;15.10;71.30;;;;;;5016904;28;20464;-79
2021/06/02 22:51:06;;;;;;;3.28;2.20;;;15.00;70.90;;;;;;5016498;28;20053;-80
2021/06/02 22:53:32;;;;;;;4.60;2.35;;;15.00;70.70;;;;;;5016785;28;20026;-81
2021/06/02 22:55:58;;;;;;;5.85;2.85;;;15.00;70.60;;;;;;5016810;28;20030;-81
2021/06/02 22:58:24;;;;;;;5.20;3.10;;;15.00;70.70;;;;;;5017454;28;20502;-81
2021/06/02 23:00:50;;;;;;;6.68;3.40;;;14.90;70.70;;;;;;5016466;28;20030;-81
2021/06/02 23:03:16;;;;;;;7.47;4.38;;;15.00;70.70;;;;;;5016550;28;20381;-80
2021/06/02 23:05:45;;;;;;;6.78;4.22;;;15.00;70.80;;;;;;5015168;28;20030;-81
2021/06/02 23:08:13;;;;;;;7.55;4.45;;;14.90;71.30;;;;;;5016455;28;20030;-81
2021/06/02 23:10:41;;;;;;;5.20;4.50;;;14.90;70.70;;;;;;5016306;28;20026;-80
2021/06/02 23:13:07;;;;;;;5.70;3.53;;;14.90;70.90;;;;;;5015219;28;20030;-81
2021/06/02 23:15:33;;;;;;;3.75;2.80;;;14.80;70.80;;;;;;5015134;28;20030;-80
2021/06/02 23:17:59;;;;;;;4.88;3.30;;;14.80;70.90;;;;;;5015102;28;20037;-81
2021/06/02 23:20:28;;;;;;;3.97;2.92;;;14.80;71.00;;;;;;5016033;28;20026;-82
2021/06/02 23:22:55;;;;;;;4.72;2.50;;;14.80;71.20;;;;;;5014956;28;20049;-81
2021/06/02 23:25:22;;;;;;;7.18;2.50;;;14.70;71.20;;;;;;5016803;28;20037;-80
2021/06/02 23:27:48;;;;;;;7.53;2.85;;;14.70;71.30;;;;;;5014783;28;20062;-80
2021/06/02 23:30:18;;;;;;;4.22;2.70;;;14.70;71.40;;;;;;5015762;28;20107;-81
2021/06/02 23:32:45;;;;;;;2.83;2.20;;;14.70;71.70;;;;;;5014857;28;20032;-79
2021/06/02 23:35:11;;;;;;;3.63;2.63;;;14.70;71.20;;;;;;5014695;28;20033;-80
2021/06/02 23:37:38;;;;;;;4.82;2.40;;;14.70;71.00;;;;;;5015972;28;20114;-79
2021/06/02 23:40:06;;;;;;;4.28;2.40;;;14.70;70.90;;;;;;5015745;28;20511;-81
2021/06/02 23:42:32;;;;;;;2.78;2.15;;;14.70;71.60;;;;;;5015850;28;20037;-80
2021/06/02 23:44:58;;;;;;;2.90;2.20;;;14.70;70.90;;;;;;5015808;28;20037;-81
2021/06/02 23:47:25;;;;;;;4.03;2.15;;;14.70;70.70;;;;;;5015848;28;20034;-81
2021/06/02 23:49:51;;;;;;;4.68;2.65;;;14.80;70.70;;;;;;5014369;28;20076;-80
2021/06/02 23:52:17;;;;;;;5.30;2.45;;;14.70;70.60;;;;;;5015774;28;20025;-80
2021/06/02 23:54:44;;;;;;;4.57;2.30;;;14.70;70.70;;;;;;5015687;28;20113;-80
2021/06/02 23:57:10;;;;;;;4.03;2.60;;;14.70;70.50;;;;;;5014287;28;20018;-80
2021/06/02 23:59:36;;;;;;;3.78;2.55;;;14.70;70.50;;;;;;5015556;28;20083;-80
